Covington, VA (24426)

12:57 PM EDT on September 02, 2015 (GMT -0400)
Rich Patch Rd between Bensrun Rd and blue Spring Run Rd | | Change Station
CLOSE
Current Station
Personal Weather Station
Location: Covington, VA
Elevation: 1604 ft
Nearby Weather Stations

Elev 1604 ft 37.68 °N, 80.07 °W | Updated 14 minutes ago

Clear
Clear
84.9 °F
Feels Like 91 °F
N
3.2
Wind Variable Wind from North

Today
High -- | Low -- °F
--% Chance of Precip.
Yesterday
High -- | Low -- °F
Precip. -- in
6:50 AM 7:48 PM
Waning Gibbous, 79% visible
Pressure 30.18 in
Visibility 10.0 miles
Clouds Scattered Clouds 3200 ft
Scattered Clouds 10000 ft
Heat Index 91 °F
Dew Point 73 °F
Humidity 67%
Rainfall 0.00 in
Snow Depth Not available.
UV 8 out of 12
Pollen 9.00 out of 12
Air Quality Not available.
Flu Activity Not available.
METAR KLWB 021635Z AUTO 31005KT 10SM SCT032 SCT100 27/20 A3018 RMK AO2 T02720202
Pressure 30.18 in
Visibility 10.0 miles
Clouds Scattered Clouds 3200 ft
Scattered Clouds 10000 ft
Heat Index 91 °F
Dew Point 73 °F
Humidity 67%
Rainfall 0.00 in
Snow Depth Not available.
UV 8 out of 12
Pollen 9.00 out of 12
Air Quality Not available.
Flu Activity Not available.
METAR KLWB 021635Z AUTO 31005KT 10SM SCT032 SCT100 27/20 A3018 RMK AO2 T02720202

10-Day Weather Forecast

×

Almanac

Astronomy

Sep. 02, 2015 Rise Set
Actual Time
Civil Twilight
Nautical Twilight
Astronomical Twilight
Moon
Length of Visible Light
Length of Day
Tomorrow will be .
, % of the Moon is Illuminated

Today's Extremes

State Highs State Lows

Community

WunderPhotos

Upload Photos

1,851,783 photos uploaded!

WunderBlogs® & News

Nearby

Air Quality

  Air Quality AQ Index Pollutant
Not available.

Snow Depth

Station Depth Elevation

Earthquake Activity

City Distance Mag. Time & Date
Minimum magnitude displayed is 2.5.

Coastal Water Temperatures

Place Temperature

Stations

Nearby Weather Stations

Station Location Temp. Windchill Dew Point Humidity Wind Precip. Elev Updated Type